Palmdale, CA (93550)

6:33 PM PDT on July 23, 2016 (GMT -0700)
RAWS | | Change Station
Active Advisory: Fire Weather Warning

Elev 2979 ft 34.54 °N, 118.10 °W | Updated 38 minutes ago

Haze
Haze
95 °F
Feels Like 90 °F
N
28
Wind Variable Wind from WSW
Gusts 37.0 mph

Today
High -- | Low -- °F
--% Chance of Precip.
Yesterday
High -- | Low -- °F
Precip. -- in
Pressure 29.77 in
Visibility 2.0 miles
Clouds Overcast 3200 ft
Heat Index 90 °F
Dew Point 36 °F
Humidity 13%
Rainfall in
Snow Depth Not available.
5:56 AM 8:00 PM
Waning Gibbous, 81% visible
METAR KPMD 240053Z AUTO 25017KT 2SM HZ OVC032 36/00 A2987 RMK AO2 SLP081 T03610000
Pressure 29.77 in
Visibility 2.0 miles
Clouds Overcast 3200 ft
Heat Index 90 °F
Dew Point 36 °F
Humidity 13%
Rainfall in
Snow Depth Not available.
5:56 AM 8:00 PM
Waning Gibbous, 81% visible
METAR KPMD 240053Z AUTO 25017KT 2SM HZ OVC032 36/00 A2987 RMK AO2 SLP081 T03610000

10-Day Weather Forecast

Almanac

Astronomy

Jul. 23, 2016 Rise Set
Actual Time
Civil Twilight
Nautical Twilight
Astronomical Twilight
Moon
Length of Visible Light
Length of Day
Tomorrow will be .
, % of the Moon is Illuminated

Today's Extremes

State Highs State Lows

Community

WunderPhotos

Upload Photos

1,926,994 photos uploaded!

WunderBlog® & News

Nearby

Air Quality

  Air Quality AQ Index Pollutant
Not available.

Snow Depth

Station Depth Elevation

Earthquake Activity

City Distance Mag. Time & Date
Minimum magnitude displayed is 2.5.

Coastal Water Temperatures

Place Temperature

Stations

Nearby Weather Stations

Station Location Temp. Windchill Dew Point Humidity Wind Precip. Elev Updated Type
                   

Watches & Warnings

Fire Weather Warning
Issued: 5:49 PM PDT Jul. 23, 2016 – National Weather Service

... Red flag warning remains in effect until midnight PDT tonight
for gusty south to southwest winds... very low relative
humidity... and hot temperatures for the Santa Clarita valley and
Antelope Valley...

* winds... for the Antelope Valley... southwest winds 15 to 25 mph
with gusts to 35 mph will continue through this evening. For the
Santa Clarita valley... south to southwest winds 10 to 20 mph
with gusts to 30 mph will continue through this evening.

* Relative humidity... 8 to 15 percent through early evening... then
gradually rising.

* Temperatures... 95 to 105 degrees through early evening.

* Impacts... if fire ignition occurs there could be rapid spread
of wildfire that would lead to a threat to life and property.

Precautionary/preparedness actions...

A red flag warning means that critical fire weather conditions
are expected. This in combination with very dry fuels will create
extreme fire danger and/or fire behavior.

Please advise the appropriate officials or fire crews in the
field of this red flag warning.



Gomberg/Smith